RÉSULTATS    Les Foulées Monterelaises - Édition du 23/10/2016


Vous pouvez changer la distance ici.

Vous pouvez changer la distance ici.

Classement PDF Général Classement PDF Alphabétique /results/<span class='glyphicon glyphicon-picture'></span> Classement Temps Officiel

1204 participants - 879 Hommes - 325 Femmes
625 licenciés (52%) - 579 non-licenciés (48%)

Temps moyen : 00:45:55


    Page / 49



Pos. Tps Réel Nom - Prénom Club Dossard Catégorie km/h Tps Officiel
1 00:29:02 KORIR Charles kiplagat 21 SEM (1 / 350) 20.6 00:29:02
2 00:29:03 GRAS Mickael 2 SEM (2 / 350) 20.6 00:29:04
3 00:29:12 MAKAU Nicholas mulinge B C RUNNING 7 SEM (3 / 350) 20.5 00:29:12
4 00:29:26 NCHOGU Vincent osoro S/L PLESSIS ROBINSON AC 16 JUM (1 / 21) 20.3 00:29:27
5 00:29:49 MAIYO Hillary kiptoo B C RUNNING 6 SEM (4 / 350) 20.1 00:29:50
6 00:29:55 HABZ Azeddine PIERREFITTE MULTI ATHLON 71 SEM (5 / 350) 20.0 00:29:56
7 00:29:57 MEKDAFOU Youssef PIERREFITTE MULTI ATHLON 74 SEM (6 / 350) 20.0 00:29:58
8 00:30:18 LIMOH Kevin kipkemoi 13 SEM (7 / 350) 19.7 00:30:19
9 00:30:22 GRAS Damien 14 SEM (8 / 350) 19.7 00:30:23
10 00:30:33 BELHADJ Mehdi PIERREFITTE MULTI ATHLON 72 ESM (1 / 29) 19.6 00:30:34
11 00:30:38 HAKIZIMANA Gervais 1 SEM (9 / 350) 19.5 00:30:39
12 00:30:44 DUPOUY Yannick US TALENCE* 3 SEM (10 / 350) 19.5 00:30:46
13 00:30:46 JEMMAL Abdelghani STADE DE VANVES 15 V1M (1 / 261) 19.5 00:30:47
15 00:30:51 WEBER Nicolas CS MEAUX ATHLETISME 117 SEM (12 / 350) 19.4 00:30:52
14 00:30:51 CHEBOI Ben B C RUNNING 8 SEM (11 / 350) 19.4 00:30:51
16 00:31:10 CARETTE Romain S/L US TOURCOING 68 SEM (13 / 350) 19.2 00:31:11
17 00:31:16 BENGHERDA Hicham STADE FRANCAIS (PARIS) 46 SEM (14 / 350) 19.1 00:31:17
19 00:31:27 BRIAND Gabriel S/L LA POSTILLONNE LONGJUMEAU 98 ESM (2 / 29) 19.0 00:31:28
18 00:31:27 BENALLOU Kevin US NEMOURS ST PIERRE ATHLE 41 SEM (15 / 350) 19.0 00:31:28
20 00:31:30 ROLLIN Stephane S/L CLUB ATHLETIQUE VRIGNOIS 48 V1M (2 / 261) 19.0 00:31:31
21 00:31:31 LABROCHE Damien AS SOMMER 51 SEM (16 / 350) 19.0 00:31:32
22 00:31:33 PIRES Nicolas S/L ENTENTE CHAUMONT AC 83 SEM (17 / 350) 19.0 00:31:34
24 00:31:35 DUHAMEL Yann PIERREFITTE MULTI ATHLON 76 SEM (19 / 350) 18.9 00:31:37
23 00:31:35 URRUTY Pierre CA MONTREUIL 93 5 SEM (18 / 350) 19.0 00:31:35
25 00:31:45 VANDEWALLE Matthieu SPN VERNON* 43 SEM (20 / 350) 18.8 00:31:46
    Page / 49 Dernière